Time;durP1;ratioP1;P1;durP2;ratioP2;P2;SDS_P1;SDS_P2;PMS_P1;PMS_P2;Temp;Humidity;BMP_temperature;BMP_pressure;BME280_temperature;BME280_humidity;BME280_pressure;Samples;Min_cycle;Max_cycle;Signal;HPM_P1;HPM_P2
2022/08/27 00:01:05;;;;;;;14.90;8.20;;;;;;;;;;4988263;28;20493;-84
2022/08/27 00:03:53;;;;;;;17.02;7.63;;;;;;;;;;4996950;28;20046;-81
2022/08/27 00:06:40;;;;;;;11.38;6.95;;;;;;;;;;4996917;28;20050;-81
2022/08/27 00:09:25;;;;;;;13.82;7.32;;;;;;;;;;5003703;28;20046;-82
2022/08/27 00:12:10;;;;;;;16.92;6.85;;;;;;;;;;4996021;28;20050;-81
2022/08/27 00:14:57;;;;;;;13.32;7.20;;;;;;;;;;5002632;28;20633;-81
2022/08/27 00:17:45;;;;;;;11.00;6.85;;;;;;;;;;5001526;28;20477;-81
2022/08/27 00:20:30;;;;;;;14.70;7.03;;;;;;;;;;4995666;28;20393;-81
2022/08/27 00:23:16;;;;;;;15.85;7.35;;;;;;;;;;5002343;28;20046;-81
2022/08/27 00:26:02;;;;;;;16.27;7.22;;;;;;;;;;4995409;28;20050;-80
2022/08/27 00:28:47;;;;;;;15.93;7.20;;;;;;;;;;4995126;28;20046;-81
2022/08/27 00:31:34;;;;;;;12.15;7.07;;;;;;;;;;5003529;28;20050;-80
2022/08/27 00:34:21;;;;;;;10.70;6.85;;;;;;;;;;4996514;28;20038;-80
2022/08/27 00:37:06;;;;;;;16.65;7.35;;;;;;;;;;4997166;28;20046;-82
2022/08/27 00:39:52;;;;;;;14.77;7.43;;;;;;;;;;4996588;28;20406;-81
2022/08/27 00:42:37;;;;;;;11.40;7.68;;;;;;;;;;4996008;28;20043;-82
2022/08/27 00:45:24;;;;;;;21.50;7.78;;;;;;;;;;4996546;28;20046;-82
2022/08/27 00:48:13;;;;;;;12.95;7.85;;;;;;;;;;4988013;28;20046;-84
2022/08/27 00:50:59;;;;;;;13.32;7.65;;;;;;;;;;5002892;28;20046;-82
2022/08/27 00:53:44;;;;;;;20.23;8.85;;;;;;;;;;5003128;28;20389;-82
2022/08/27 00:56:38;;;;;;;15.20;8.00;;;;;;;;;;5002510;28;20386;-81
2022/08/27 00:59:28;;;;;;;14.38;7.65;;;;;;;;;;4996407;28;20046;-83
2022/08/27 01:02:19;;;;;;;13.85;8.30;;;;;;;;;;5002475;28;20050;-82
2022/08/27 01:05:09;;;;;;;16.25;8.18;;;;;;;;;;4996133;28;20394;-82
2022/08/27 01:08:00;;;;;;;15.20;8.38;;;;;;;;;;4996007;28;20050;-81
2022/08/27 01:10:47;;;;;;;14.00;7.80;;;;;;;;;;5002281;28;20046;-82
2022/08/27 01:13:33;;;;;;;17.08;7.28;;;;;;;;;;5002569;28;20405;-81
2022/08/27 01:16:26;;;;;;;16.40;7.40;;;;;;;;;;4995612;28;20051;-81
2022/08/27 01:19:38;;;;;;;13.82;7.30;;;;;;;;;;4981312;28;20058;-81
2022/08/27 01:22:58;;;;;;;22.23;7.90;;;;;;;;;;5002757;28;20417;-81
2022/08/27 01:25:44;;;;;;;16.83;7.47;;;;;;;;;;5002578;28;20046;-82
2022/08/27 01:28:31;;;;;;;14.18;7.43;;;;;;;;;;5001924;28;20490;-82
2022/08/27 01:31:16;;;;;;;12.00;6.57;;;;;;;;;;5002091;28;20054;-80
2022/08/27 01:34:04;;;;;;;15.75;7.53;;;;;;;;;;4993454;28;20039;-82
2022/08/27 01:36:50;;;;;;;12.75;6.80;;;;;;;;;;4988810;28;20042;-82
2022/08/27 01:39:38;;;;;;;17.90;7.60;;;;;;;;;;4986209;28;20046;-80
2022/08/27 01:42:29;;;;;;;17.52;7.57;;;;;;;;;;4992818;28;20401;-81
2022/08/27 01:45:19;;;;;;;15.63;8.25;;;;;;;;;;4988995;28;20050;-82
2022/08/27 01:48:08;;;;;;;15.25;7.82;;;;;;;;;;4995002;28;20046;-82
2022/08/27 01:50:54;;;;;;;16.27;7.70;;;;;;;;;;4991488;28;20477;-82
2022/08/27 01:53:40;;;;;;;10.90;7.20;;;;;;;;;;4985211;28;20508;-81
2022/08/27 01:56:26;;;;;;;18.67;7.63;;;;;;;;;;4982775;28;20042;-81
2022/08/27 01:59:11;;;;;;;16.10;7.07;;;;;;;;;;4981802;28;20059;-81
2022/08/27 02:01:57;;;;;;;15.43;8.00;;;;;;;;;;4984069;28;20051;-80
2022/08/27 02:04:44;;;;;;;12.50;7.60;;;;;;;;;;4982280;28;20051;-81
2022/08/27 02:07:29;;;;;;;14.55;8.27;;;;;;;;;;4980456;28;20043;-81
2022/08/27 02:10:18;;;;;;;14.05;7.47;;;;;;;;;;4980772;28;20059;-81
2022/08/27 02:13:05;;;;;;;15.43;7.55;;;;;;;;;;4981280;28;20047;-81
2022/08/27 02:15:51;;;;;;;22.25;7.90;;;;;;;;;;4982092;28;20054;-80
2022/08/27 02:18:37;;;;;;;18.13;8.10;;;;;;;;;;4981511;28;20058;-82
2022/08/27 02:21:22;;;;;;;11.32;7.93;;;;;;;;;;4981840;28;20054;-81
2022/08/27 02:24:08;;;;;;;17.60;9.10;;;;;;;;;;4975458;28;20042;-81
2022/08/27 02:26:57;;;;;;;16.85;7.82;;;;;;;;;;4975042;28;20051;-82
2022/08/27 02:29:42;;;;;;;11.90;7.45;;;;;;;;;;4981344;28;20052;-80
2022/08/27 02:32:27;;;;;;;15.20;7.72;;;;;;;;;;4974747;28;20046;-81
2022/08/27 02:35:15;;;;;;;15.65;7.63;;;;;;;;;;4981551;28;20047;-82
2022/08/27 02:38:00;;;;;;;12.23;7.53;;;;;;;;;;4974846;28;20043;-81
2022/08/27 02:40:46;;;;;;;20.42;8.27;;;;;;;;;;4981288;28;20397;-81
2022/08/27 02:43:32;;;;;;;13.35;7.72;;;;;;;;;;4974949;28;20042;-81
2022/08/27 02:46:17;;;;;;;19.73;7.72;;;;;;;;;;4975506;28;20398;-81
2022/08/27 02:49:03;;;;;;;13.70;7.82;;;;;;;;;;4974814;28;20051;-82
2022/08/27 02:51:53;;;;;;;18.65;8.05;;;;;;;;;;4981663;28;20054;-82
2022/08/27 02:54:38;;;;;;;13.35;7.82;;;;;;;;;;4981341;28;20054;-82
2022/08/27 02:57:25;;;;;;;16.02;8.25;;;;;;;;;;4981931;28;20481;-83
2022/08/27 03:00:15;;;;;;;10.88;7.60;;;;;;;;;;4975024;28;20483;-82
2022/08/27 03:03:01;;;;;;;13.48;7.53;;;;;;;;;;4974830;28;20051;-82
2022/08/27 03:05:47;;;;;;;11.45;7.85;;;;;;;;;;4981631;28;20042;-83
2022/08/27 03:08:32;;;;;;;18.02;8.02;;;;;;;;;;4980694;28;20050;-82
2022/08/27 03:11:17;;;;;;;12.80;8.18;;;;;;;;;;4981292;28;20058;-81
2022/08/27 03:14:03;;;;;;;18.23;8.55;;;;;;;;;;4981631;28;20055;-80
2022/08/27 03:16:49;;;;;;;17.45;7.68;;;;;;;;;;4980930;28;20046;-82
2022/08/27 03:19:34;;;;;;;15.40;8.45;;;;;;;;;;4983117;28;20054;-82
2022/08/27 03:22:20;;;;;;;15.85;8.25;;;;;;;;;;4984907;28;20050;-82
2022/08/27 03:25:06;;;;;;;17.23;8.73;;;;;;;;;;4985053;28;20046;-81
2022/08/27 03:27:51;;;;;;;14.18;8.30;;;;;;;;;;4978425;28;20474;-82
2022/08/27 03:30:37;;;;;;;10.15;8.02;;;;;;;;;;4984580;28;20470;-81
2022/08/27 03:33:23;;;;;;;18.42;7.93;;;;;;;;;;4978779;28;20050;-81
2022/08/27 03:36:08;;;;;;;18.35;8.02;;;;;;;;;;4984469;28;20402;-82
2022/08/27 03:38:54;;;;;;;17.35;8.45;;;;;;;;;;4984695;28;20054;-80
2022/08/27 03:41:40;;;;;;;13.63;7.78;;;;;;;;;;4984938;28;20054;-82
2022/08/27 03:44:26;;;;;;;14.30;8.80;;;;;;;;;;4984568;28;20047;-81
2022/08/27 03:47:11;;;;;;;19.27;10.38;;;;;;;;;;4978218;28;20047;-81
2022/08/27 03:49:59;;;;;;;16.85;9.23;;;;;;;;;;4984010;28;20047;-81
2022/08/27 03:52:44;;;;;;;18.65;9.10;;;;;;;;;;4978150;28;20039;-82
2022/08/27 03:55:30;;;;;;;19.63;8.80;;;;;;;;;;4984366;28;20050;-82
2022/08/27 03:58:16;;;;;;;17.58;8.65;;;;;;;;;;4983547;28;20051;-81
2022/08/27 04:01:03;;;;;;;16.80;9.25;;;;;;;;;;4984304;28;20054;-83
2022/08/27 04:03:49;;;;;;;17.90;9.15;;;;;;;;;;4977826;28;20051;-82
2022/08/27 04:06:35;;;;;;;24.50;11.40;;;;;;;;;;4977792;28;20043;-82
2022/08/27 04:09:19;;;;;;;19.60;9.80;;;;;;;;;;4984319;28;20047;-81
2022/08/27 04:12:05;;;;;;;14.85;8.88;;;;;;;;;;4983896;28;20055;-82
2022/08/27 04:14:50;;;;;;;15.65;9.52;;;;;;;;;;4977779;28;20047;-82
2022/08/27 04:17:36;;;;;;;14.52;8.93;;;;;;;;;;4983814;28;20474;-82
2022/08/27 04:20:21;;;;;;;17.60;10.30;;;;;;;;;;4977614;28;20046;-82
2022/08/27 04:23:08;;;;;;;17.92;10.27;;;;;;;;;;4977466;28;20043;-81
2022/08/27 04:25:53;;;;;;;21.55;9.82;;;;;;;;;;4962808;28;20406;-82
2022/08/27 04:28:38;;;;;;;19.27;9.65;;;;;;;;;;4978438;28;20414;-82
2022/08/27 04:31:24;;;;;;;17.48;9.10;;;;;;;;;;4983541;28;20488;-80
2022/08/27 04:34:09;;;;;;;17.02;8.80;;;;;;;;;;4977645;28;20414;-83
2022/08/27 04:36:56;;;;;;;11.70;8.10;;;;;;;;;;4982737;28;20398;-82
2022/08/27 04:39:42;;;;;;;11.93;8.57;;;;;;;;;;4980722;28;20062;-80
2022/08/27 04:42:28;;;;;;;15.57;8.48;;;;;;;;;;4989095;28;20051;-80
2022/08/27 04:45:13;;;;;;;11.13;7.88;;;;;;;;;;4986667;28;20050;-80
2022/08/27 04:47:59;;;;;;;16.48;8.48;;;;;;;;;;4986444;28;20478;-81
2022/08/27 04:50:46;;;;;;;16.02;8.10;;;;;;;;;;4980546;28;20050;-83
2022/08/27 04:53:31;;;;;;;16.45;8.05;;;;;;;;;;4979933;28;20046;-82
2022/08/27 04:56:20;;;;;;;23.50;14.70;;;;;;;;;;4979758;28;20047;-80
2022/08/27 04:59:08;;;;;;;20.17;13.90;;;;;;;;;;4978556;28;20051;-82
2022/08/27 05:01:54;;;;;;;20.92;12.70;;;;;;;;;;4978559;28;20486;-82
2022/08/27 05:04:39;;;;;;;18.15;8.57;;;;;;;;;;4982881;28;20042;-81
2022/08/27 05:07:25;;;;;;;15.73;8.00;;;;;;;;;;4976158;28;20086;-82
2022/08/27 05:10:11;;;;;;;19.27;7.35;;;;;;;;;;4976595;28;20038;-82
2022/08/27 05:12:56;;;;;;;15.63;7.38;;;;;;;;;;4976311;28;20396;-84
2022/08/27 05:15:42;;;;;;;14.85;7.53;;;;;;;;;;4976157;28;20047;-82
2022/08/27 05:18:28;;;;;;;17.02;7.57;;;;;;;;;;4976430;28;20051;-81
2022/08/27 05:21:21;;;;;;;13.07;6.75;;;;;;;;;;4976090;28;20474;-83
2022/08/27 05:24:06;;;;;;;11.77;7.20;;;;;;;;;;4968338;28;20046;-83
2022/08/27 05:26:52;;;;;;;11.38;6.40;;;;;;;;;;4983471;28;20046;-83
2022/08/27 05:29:38;;;;;;;17.60;6.25;;;;;;;;;;4995009;28;20050;-84
2022/08/27 05:32:24;;;;;;;12.15;7.13;;;;;;;;;;5002031;28;20475;-83
2022/08/27 05:35:09;;;;;;;10.60;6.10;;;;;;;;;;4987032;28;20054;-81
2022/08/27 05:37:54;;;;;;;15.15;8.27;;;;;;;;;;4987057;28;20046;-81
2022/08/27 05:40:41;;;;;;;16.95;7.90;;;;;;;;;;4990780;28;20410;-82
2022/08/27 05:43:26;;;;;;;12.07;7.18;;;;;;;;;;4975200;28;20406;-83
2022/08/27 05:46:14;;;;;;;14.25;6.63;;;;;;;;;;4982609;28;20047;-83
2022/08/27 05:49:00;;;;;;;15.52;7.05;;;;;;;;;;4977922;28;20047;-84
2022/08/27 05:51:45;;;;;;;14.93;7.05;;;;;;;;;;4995030;28;20054;-82
2022/08/27 05:54:31;;;;;;;17.77;6.80;;;;;;;;;;5000824;28;20477;-83
2022/08/27 05:57:16;;;;;;;12.07;7.35;;;;;;;;;;4995040;28;20050;-82
2022/08/27 06:03:10;;;;;;;15.60;7.20;;;;;;;;;;4992895;28;20042;-83
2022/08/27 06:06:03;;;;;;;17.00;7.07;;;;;;;;;;5001379;28;20046;-82
2022/08/27 06:08:50;;;;;;;14.45;6.45;;;;;;;;;;4999623;28;20042;-83
2022/08/27 06:11:36;;;;;;;18.30;6.35;;;;;;;;;;4996980;28;20046;-83
2022/08/27 06:14:22;;;;;;;20.50;6.18;;;;;;;;;;4994657;28;20038;-82
2022/08/27 06:17:07;;;;;;;11.63;6.78;;;;;;;;;;4986380;28;20051;-81
2022/08/27 06:19:52;;;;;;;11.95;5.47;;;;;;;;;;4988727;28;20058;-82
2022/08/27 06:22:38;;;;;;;9.75;6.30;;;;;;;;;;4988353;28;20054;-81
2022/08/27 06:25:23;;;;;;;18.90;6.00;;;;;;;;;;4981669;28;20054;-84
2022/08/27 06:28:12;;;;;;;13.55;6.50;;;;;;;;;;4989509;28;20042;-83
2022/08/27 06:31:09;;;;;;;14.52;6.93;;;;;;;;;;4981213;28;20039;-83
2022/08/27 06:33:58;;;;;;;14.55;8.15;;;;;;;;;;4975251;28;20047;-83
2022/08/27 06:36:44;;;;;;;22.20;8.38;;;;;;;;;;4977044;28;20047;-84
2022/08/27 06:39:30;;;;;;;22.45;11.43;;;;;;;;;;4975263;28;20050;-82
2022/08/27 06:42:14;;;;;;;25.80;12.30;;;;;;;;;;5000932;28;20509;-83
2022/08/27 06:45:00;;;;;;;24.38;12.07;;;;;;;;;;4982247;28;20398;-83
2022/08/27 06:47:46;;;;;;;37.03;15.95;;;;;;;;;;4991349;28;20050;-81
2022/08/27 06:50:39;;;;;;;38.55;16.20;;;;;;;;;;4980594;28;20055;-82
2022/08/27 06:53:25;;;;;;;27.85;10.80;;;;;;;;;;5000273;28;20054;-82
2022/08/27 06:56:11;;;;;;;16.88;8.63;;;;;;;;;;5001004;28;20058;-83
2022/08/27 06:58:59;;;;;;;11.82;6.25;;;;;;;;;;4998477;28;20054;-82
2022/08/27 07:01:48;;;;;;;12.50;5.90;;;;;;;;;;5001230;28;20055;-82
2022/08/27 07:04:33;;;;;;;17.90;6.88;;;;;;;;;;5000981;28;20046;-82
2022/08/27 07:07:19;;;;;;;11.82;5.80;;;;;;;;;;5000527;28;20050;-83
2022/08/27 07:10:06;;;;;;;15.40;6.28;;;;;;;;;;5000531;28;20489;-82
2022/08/27 07:12:52;;;;;;;15.85;6.88;;;;;;;;;;5000400;28;20050;-83
2022/08/27 07:15:38;;;;;;;15.20;5.80;;;;;;;;;;5001628;28;20050;-81
2022/08/27 07:18:24;;;;;;;15.57;6.38;;;;;;;;;;4986421;28;20051;-82
2022/08/27 07:21:10;;;;;;;13.02;5.93;;;;;;;;;;4985246;28;20051;-80
2022/08/27 07:23:58;;;;;;;11.02;6.15;;;;;;;;;;4982729;28;20046;-83
2022/08/27 07:26:44;;;;;;;13.85;5.78;;;;;;;;;;4990814;28;20058;-82
2022/08/27 07:29:29;;;;;;;14.15;5.15;;;;;;;;;;4985392;28;20047;-83
2022/08/27 07:32:14;;;;;;;14.55;5.88;;;;;;;;;;4985828;28;20501;-82
2022/08/27 07:34:59;;;;;;;11.80;6.63;;;;;;;;;;4993657;28;20039;-83
2022/08/27 07:37:46;;;;;;;16.25;6.30;;;;;;;;;;5000447;28;20050;-82
2022/08/27 07:40:31;;;;;;;15.75;6.45;;;;;;;;;;5000174;28;20054;-82
2022/08/27 07:46:22;;;;;;;13.85;6.10;;;;;;;;;;5000019;28;20046;-82
2022/08/27 07:49:07;;;;;;;19.30;6.70;;;;;;;;;;4999791;28;20474;-82
2022/08/27 07:51:52;;;;;;;11.07;6.40;;;;;;;;;;4992034;28;20054;-82
2022/08/27 07:54:38;;;;;;;15.40;6.63;;;;;;;;;;4975565;28;20038;-83
2022/08/27 07:57:24;;;;;;;12.95;6.00;;;;;;;;;;5000191;28;20054;-82
2022/08/27 08:00:10;;;;;;;13.63;5.72;;;;;;;;;;4994990;28;20054;-80
2022/08/27 08:02:57;;;;;;;18.73;6.07;;;;;;;;;;4992960;28;20046;-80
2022/08/27 08:05:43;;;;;;;25.23;6.45;;;;;;;;;;4994810;28;20043;-79
2022/08/27 08:08:28;;;;;;;15.43;5.68;;;;;;;;;;4984101;28;20046;-83
2022/08/27 08:11:15;;;;;;;13.70;5.97;;;;;;;;;;4993959;28;20050;-82
2022/08/27 08:14:01;;;;;;;14.90;5.82;;;;;;;;;;4996598;28;20038;-82
2022/08/27 08:16:47;;;;;;;12.02;5.70;;;;;;;;;;4996667;28;20050;-80
2022/08/27 08:19:32;;;;;;;11.27;6.28;;;;;;;;;;5003316;28;20054;-81
2022/08/27 08:22:19;;;;;;;13.45;6.45;;;;;;;;;;5003632;28;20046;-80
2022/08/27 08:25:06;;;;;;;14.50;6.40;;;;;;;;;;5000015;28;20046;-81
2022/08/27 08:27:51;;;;;;;18.63;6.40;;;;;;;;;;4994151;28;20042;-80
2022/08/27 08:30:37;;;;;;;13.18;6.60;;;;;;;;;;4986495;28;20043;-80
2022/08/27 08:33:23;;;;;;;12.43;6.80;;;;;;;;;;4982671;28;20051;-82
2022/08/27 08:36:11;;;;;;;16.08;6.40;;;;;;;;;;5002983;28;20050;-80
2022/08/27 08:38:56;;;;;;;12.93;6.03;;;;;;;;;;4984044;28;20046;-81
2022/08/27 08:41:49;;;;;;;13.80;6.03;;;;;;;;;;4983243;28;20043;-80
2022/08/27 08:44:47;;;;;;;15.00;6.03;;;;;;;;;;4983262;28;20050;-81
2022/08/27 08:47:52;;;;;;;16.75;6.00;;;;;;;;;;4983067;28;20043;-80
2022/08/27 08:51:11;;;;;;;16.25;6.85;;;;;;;;;;4985825;28;20031;-82
2022/08/27 08:53:58;;;;;;;12.90;6.80;;;;;;;;;;4985698;28;20050;-81
2022/08/27 08:57:20;;;;;;;14.20;6.75;;;;;;;;;;5002649;28;20062;-80
2022/08/27 09:00:12;;;;;;;16.23;6.72;;;;;;;;;;4986023;28;20050;-80
2022/08/27 09:02:58;;;;;;;17.08;6.28;;;;;;;;;;4991488;28;20402;-79
2022/08/27 09:05:52;;;;;;;13.85;7.32;;;;;;;;;;4992583;28;20043;-80
2022/08/27 09:08:42;;;;;;;12.70;6.30;;;;;;;;;;4995709;28;20046;-79
2022/08/27 09:11:38;;;;;;;14.88;6.68;;;;;;;;;;4994714;28;20394;-79
2022/08/27 09:14:46;;;;;;;16.23;7.20;;;;;;;;;;4996272;28;20054;-81
2022/08/27 09:17:33;;;;;;;15.30;6.47;;;;;;;;;;4981834;28;20046;-83
2022/08/27 09:20:21;;;;;;;12.45;6.30;;;;;;;;;;4976097;28;20046;-80
2022/08/27 09:23:39;;;;;;;13.80;6.63;;;;;;;;;;4982775;28;20050;-83
2022/08/27 09:26:27;;;;;;;15.48;6.35;;;;;;;;;;4988032;28;20046;-83
2022/08/27 09:29:15;;;;;;;10.07;5.40;;;;;;;;;;4990279;28;20478;-83
2022/08/27 09:32:07;;;;;;;15.05;5.93;;;;;;;;;;4994318;28;20042;-79
2022/08/27 09:34:57;;;;;;;13.45;6.28;;;;;;;;;;4982736;28;20059;-80
2022/08/27 09:37:47;;;;;;;16.83;6.22;;;;;;;;;;4983581;28;20051;-83
2022/08/27 09:40:48;;;;;;;11.27;5.65;;;;;;;;;;4991174;28;20050;-82
2022/08/27 09:43:33;;;;;;;16.15;6.85;;;;;;;;;;4985910;28;20050;-84
2022/08/27 09:46:21;;;;;;;16.15;6.07;;;;;;;;;;4995310;28;20042;-81
2022/08/27 09:49:16;;;;;;;17.85;6.38;;;;;;;;;;4985008;28;20043;-82
2022/08/27 09:52:02;;;;;;;14.95;5.75;;;;;;;;;;4982063;28;20046;-81
2022/08/27 09:54:47;;;;;;;14.20;5.75;;;;;;;;;;4997121;28;20050;-81
2022/08/27 09:57:39;;;;;;;13.15;5.63;;;;;;;;;;4990728;28;20486;-82
2022/08/27 10:00:36;;;;;;;14.70;5.35;;;;;;;;;;4995986;28;20050;-84
2022/08/27 10:03:22;;;;;;;13.30;5.25;;;;;;;;;;4996208;28;20054;-81
2022/08/27 10:06:08;;;;;;;19.80;5.53;;;;;;;;;;4998809;28;20046;-81
2022/08/27 10:09:00;;;;;;;10.30;5.50;;;;;;;;;;4992304;28;20038;-82
2022/08/27 10:11:59;;;;;;;17.92;5.80;;;;;;;;;;4993846;28;20409;-82
2022/08/27 10:14:51;;;;;;;9.85;4.95;;;;;;;;;;5000252;28;20080;-83
2022/08/27 10:17:44;;;;;;;16.98;5.38;;;;;;;;;;5000937;28;20042;-82
2022/08/27 10:20:41;;;;;;;11.90;5.32;;;;;;;;;;4993552;28;20046;-83
2022/08/27 10:23:38;;;;;;;19.27;6.60;;;;;;;;;;4994614;28;20047;-81
2022/08/27 10:26:28;;;;;;;9.35;4.93;;;;;;;;;;5000733;28;20050;-82
2022/08/27 10:29:37;;;;;;;16.20;5.57;;;;;;;;;;4993982;28;20042;-82
2022/08/27 10:32:50;;;;;;;11.75;5.25;;;;;;;;;;4994908;28;20398;-81
2022/08/27 10:35:50;;;;;;;13.20;5.68;;;;;;;;;;4994327;28;20050;-83
2022/08/27 10:38:40;;;;;;;14.98;6.20;;;;;;;;;;5001322;28;20054;-81
2022/08/27 10:41:36;;;;;;;10.77;5.35;;;;;;;;;;4994448;28;20046;-82
2022/08/27 10:44:21;;;;;;;12.30;4.72;;;;;;;;;;4994147;28;20046;-84
2022/08/27 10:47:32;;;;;;;13.80;4.75;;;;;;;;;;5001572;28;20054;-81
2022/08/27 10:50:40;;;;;;;14.70;4.65;;;;;;;;;;4994107;28;20050;-84
2022/08/27 10:53:59;;;;;;;13.25;4.57;;;;;;;;;;4994324;28;20397;-81
2022/08/27 10:57:06;;;;;;;16.27;4.65;;;;;;;;;;4978090;28;20050;-81
2022/08/27 11:00:11;;;;;;;11.20;4.57;;;;;;;;;;4996486;28;20054;-84
2022/08/27 11:03:10;;;;;;;16.45;5.00;;;;;;;;;;5000956;28;20042;-81
2022/08/27 11:05:59;;;;;;;11.18;4.35;;;;;;;;;;4994116;28;20398;-82
2022/08/27 11:08:52;;;;;;;13.35;4.57;;;;;;;;;;4994485;28;20038;-82
2022/08/27 11:11:42;;;;;;;15.52;5.10;;;;;;;;;;5000527;28;20038;-81
2022/08/27 11:14:51;;;;;;;12.68;5.20;;;;;;;;;;5000360;28;20046;-81
2022/08/27 11:17:44;;;;;;;12.20;5.90;;;;;;;;;;5000197;28;20058;-82
2022/08/27 11:20:52;;;;;;;15.65;6.72;;;;;;;;;;5000534;28;20058;-82
2022/08/27 11:23:43;;;;;;;10.80;4.78;;;;;;;;;;4994259;28;20038;-82
2022/08/27 11:26:32;;;;;;;11.15;3.90;;;;;;;;;;4999946;28;20046;-81
2022/08/27 11:29:31;;;;;;;12.88;4.47;;;;;;;;;;4994122;28;20050;-81
2022/08/27 11:32:41;;;;;;;10.80;3.47;;;;;;;;;;5000496;28;20058;-80
2022/08/27 11:35:58;;;;;;;10.30;3.35;;;;;;;;;;5000693;28;20046;-81
2022/08/27 11:39:03;;;;;;;8.10;3.42;;;;;;;;;;5000119;28;20046;-79
2022/08/27 11:42:03;;;;;;;10.65;3.30;;;;;;;;;;5003931;28;20050;-80
2022/08/27 11:44:55;;;;;;;7.95;3.25;;;;;;;;;;5004230;28;20046;-80
2022/08/27 11:47:53;;;;;;;18.38;3.65;;;;;;;;;;5003735;28;20050;-80
2022/08/27 11:50:38;;;;;;;9.38;3.67;;;;;;;;;;5004012;28;20050;-80
2022/08/27 11:53:32;;;;;;;13.55;3.83;;;;;;;;;;5003681;28;20042;-81
2022/08/27 11:56:35;;;;;;;10.90;3.20;;;;;;;;;;5003905;28;20474;-78
2022/08/27 11:59:26;;;;;;;12.63;3.55;;;;;;;;;;5001124;28;20054;-79
2022/08/27 12:02:28;;;;;;;11.85;3.80;;;;;;;;;;5004004;28;20046;-79
2022/08/27 12:05:23;;;;;;;9.68;3.50;;;;;;;;;;5004129;28;20449;-79
2022/08/27 12:08:20;;;;;;;9.23;3.35;;;;;;;;;;5003633;28;20055;-79
2022/08/27 12:11:23;;;;;;;6.85;3.47;;;;;;;;;;5003763;28;20462;-80
2022/08/27 12:14:38;;;;;;;8.13;3.53;;;;;;;;;;5002871;28;20481;-80
2022/08/27 12:17:34;;;;;;;12.60;3.40;;;;;;;;;;5003245;28;20046;-79
2022/08/27 12:20:44;;;;;;;8.05;3.63;;;;;;;;;;4988985;28;20054;-79
2022/08/27 12:23:51;;;;;;;9.10;3.75;;;;;;;;;;5003526;28;20054;-80
2022/08/27 12:26:52;;;;;;;11.95;3.75;;;;;;;;;;4997131;28;20046;-78
2022/08/27 12:29:48;;;;;;;10.68;3.83;;;;;;;;;;5002692;28;20047;-79
2022/08/27 12:32:33;;;;;;;14.00;4.35;;;;;;;;;;5003361;28;20478;-79
2022/08/27 12:35:36;;;;;;;13.07;4.00;;;;;;;;;;5002879;28;20051;-79
2022/08/27 12:38:31;;;;;;;8.65;3.70;;;;;;;;;;4996596;28;20042;-80
2022/08/27 12:41:25;;;;;;;7.57;3.30;;;;;;;;;;5003219;28;20058;-78
2022/08/27 12:44:21;;;;;;;14.57;4.13;;;;;;;;;;5007901;28;20409;-79
2022/08/27 12:47:11;;;;;;;12.43;4.20;;;;;;;;;;5005118;28;20050;-79
2022/08/27 12:49:58;;;;;;;10.40;4.15;;;;;;;;;;5002706;28;20043;-78
2022/08/27 12:52:58;;;;;;;11.90;4.60;;;;;;;;;;5002373;28;20351;-79
2022/08/27 12:56:06;;;;;;;12.75;4.03;;;;;;;;;;5002598;28;20477;-79
2022/08/27 12:59:14;;;;;;;11.50;3.92;;;;;;;;;;5000626;28;20378;-78
2022/08/27 13:02:16;;;;;;;11.90;4.38;;;;;;;;;;5002170;28;20042;-79
2022/08/27 13:05:04;;;;;;;12.25;3.72;;;;;;;;;;5002755;28;20054;-79
2022/08/27 13:07:52;;;;;;;15.43;5.88;;;;;;;;;;5002690;28;20050;-78
2022/08/27 13:10:38;;;;;;;13.65;3.83;;;;;;;;;;4995778;28;20424;-78
2022/08/27 13:13:24;;;;;;;8.60;3.38;;;;;;;;;;5002482;28;20437;-79
2022/08/27 13:16:11;;;;;;;7.15;3.55;;;;;;;;;;5002390;28;20054;-80
2022/08/27 13:18:56;;;;;;;10.48;4.22;;;;;;;;;;5002277;28;20050;-80
2022/08/27 13:21:48;;;;;;;14.30;4.53;;;;;;;;;;4986301;28;20047;-79
2022/08/27 13:24:43;;;;;;;8.95;3.92;;;;;;;;;;4992563;28;20038;-82
2022/08/27 13:27:32;;;;;;;10.18;3.30;;;;;;;;;;4992774;28;20046;-80
2022/08/27 13:30:18;;;;;;;6.68;3.75;;;;;;;;;;4982243;28;20050;-80
2022/08/27 13:33:12;;;;;;;9.00;4.00;;;;;;;;;;4971975;28;20047;-79
2022/08/27 13:35:57;;;;;;;7.53;3.28;;;;;;;;;;4986465;28;20058;-78
2022/08/27 13:38:44;;;;;;;14.23;3.53;;;;;;;;;;4990191;28;20043;-80
2022/08/27 13:41:35;;;;;;;8.95;4.43;;;;;;;;;;4992776;28;20046;-80
2022/08/27 13:44:25;;;;;;;12.75;4.55;;;;;;;;;;4990201;28;20474;-79
2022/08/27 13:47:20;;;;;;;9.02;3.88;;;;;;;;;;4991112;28;20047;-79
2022/08/27 13:50:27;;;;;;;5.70;3.20;;;;;;;;;;4991873;28;20055;-78
2022/08/27 13:56:37;;;;;;;9.40;4.25;;;;;;;;;;4985145;28;20401;-78
2022/08/27 13:59:25;;;;;;;9.98;3.97;;;;;;;;;;4984871;28;20050;-80
2022/08/27 14:02:11;;;;;;;17.70;4.82;;;;;;;;;;4976620;28;20058;-79
2022/08/27 14:05:05;;;;;;;8.20;4.30;;;;;;;;;;4991420;28;20046;-79
2022/08/27 14:08:09;;;;;;;8.07;3.78;;;;;;;;;;4989817;28;20055;-79
2022/08/27 14:11:07;;;;;;;11.63;4.30;;;;;;;;;;4991166;28;20050;-77
2022/08/27 14:13:55;;;;;;;9.45;3.75;;;;;;;;;;4990607;28;20050;-76
2022/08/27 14:16:41;;;;;;;7.40;3.78;;;;;;;;;;4984521;28;20057;-77
2022/08/27 14:19:32;;;;;;;14.18;3.97;;;;;;;;;;4991783;28;20047;-78
2022/08/27 14:22:18;;;;;;;7.38;3.38;;;;;;;;;;4984738;28;20046;-80
2022/08/27 14:25:04;;;;;;;7.70;3.53;;;;;;;;;;4993794;28;20046;-79
2022/08/27 14:27:52;;;;;;;9.43;4.40;;;;;;;;;;4990961;28;20046;-79
2022/08/27 14:30:38;;;;;;;8.02;3.78;;;;;;;;;;4992932;28;20477;-78
2022/08/27 14:33:23;;;;;;;9.82;4.00;;;;;;;;;;4979304;28;20046;-80
2022/08/27 14:36:09;;;;;;;12.82;4.18;;;;;;;;;;4995140;28;20054;-78
2022/08/27 14:38:55;;;;;;;8.68;3.95;;;;;;;;;;5000874;28;20054;-77
2022/08/27 14:41:41;;;;;;;7.53;3.65;;;;;;;;;;5000827;28;20050;-77
2022/08/27 14:44:26;;;;;;;8.90;3.97;;;;;;;;;;5000621;28;20046;-77
2022/08/27 14:47:13;;;;;;;9.80;3.80;;;;;;;;;;5000731;28;20397;-77
2022/08/27 14:49:59;;;;;;;9.18;3.22;;;;;;;;;;5000447;28;20042;-79
2022/08/27 14:52:45;;;;;;;5.88;3.08;;;;;;;;;;5000622;28;20046;-79
2022/08/27 14:55:31;;;;;;;9.05;3.60;;;;;;;;;;5000499;28;20046;-78
2022/08/27 14:58:16;;;;;;;7.45;3.50;;;;;;;;;;4999833;28;20042;-79
2022/08/27 15:01:02;;;;;;;8.05;3.70;;;;;;;;;;5000724;28;20050;-79
2022/08/27 15:03:49;;;;;;;14.45;3.65;;;;;;;;;;5000606;28;20054;-79
2022/08/27 15:06:34;;;;;;;9.77;3.53;;;;;;;;;;5000703;28;20054;-80
2022/08/27 15:09:20;;;;;;;10.85;3.70;;;;;;;;;;5000727;28;20410;-79
2022/08/27 15:12:05;;;;;;;12.82;3.75;;;;;;;;;;5000490;28;20050;-78
2022/08/27 15:14:51;;;;;;;11.10;3.40;;;;;;;;;;5002884;28;20470;-78
2022/08/27 15:17:37;;;;;;;8.95;3.17;;;;;;;;;;5004289;28;20050;-80
2022/08/27 15:20:22;;;;;;;11.30;3.85;;;;;;;;;;5004597;28;20405;-81
2022/08/27 15:23:11;;;;;;;11.48;3.38;;;;;;;;;;5004456;28;20046;-80
2022/08/27 15:25:56;;;;;;;7.70;3.22;;;;;;;;;;5004517;28;20054;-80
2022/08/27 15:28:42;;;;;;;17.77;3.83;;;;;;;;;;5009389;28;20478;-79
2022/08/27 15:31:27;;;;;;;11.50;3.70;;;;;;;;;;5004753;28;20401;-79
2022/08/27 15:34:13;;;;;;;7.68;3.60;;;;;;;;;;5004637;28;20046;-79
2022/08/27 15:36:58;;;;;;;13.60;6.25;;;;;;;;;;5003552;28;20477;-80
2022/08/27 15:39:44;;;;;;;10.40;4.35;;;;;;;;;;5004010;28;20054;-77
2022/08/27 15:42:30;;;;;;;14.38;6.35;;;;;;;;;;5004290;28;20058;-79
2022/08/27 15:45:16;;;;;;;18.80;7.45;;;;;;;;;;5003771;28;20054;-81
2022/08/27 15:48:01;;;;;;;22.73;8.15;;;;;;;;;;4997212;28;20406;-80
2022/08/27 15:50:47;;;;;;;26.70;9.60;;;;;;;;;;5003449;28;20046;-80
2022/08/27 15:53:33;;;;;;;30.77;13.52;;;;;;;;;;5003592;28;20054;-79
2022/08/27 15:56:19;;;;;;;32.42;12.90;;;;;;;;;;5003683;28;20046;-81
2022/08/27 15:59:04;;;;;;;34.03;10.88;;;;;;;;;;5001102;28;20050;-79
2022/08/27 16:01:50;;;;;;;25.27;8.65;;;;;;;;;;4997137;28;20058;-80
2022/08/27 16:04:35;;;;;;;24.00;7.30;;;;;;;;;;4995849;28;20050;-81
2022/08/27 16:07:22;;;;;;;15.18;5.70;;;;;;;;;;4996846;28;20113;-80
2022/08/27 16:10:08;;;;;;;15.07;5.40;;;;;;;;;;4996614;28;20050;-79
2022/08/27 16:12:54;;;;;;;14.85;6.38;;;;;;;;;;4993428;28;20246;-81
2022/08/27 16:15:40;;;;;;;37.42;15.48;;;;;;;;;;4994625;28;20034;-80
2022/08/27 16:18:31;;;;;;;39.33;14.68;;;;;;;;;;5002998;28;20486;-81
2022/08/27 16:21:17;;;;;;;41.85;15.23;;;;;;;;;;4996929;28;20386;-80
2022/08/27 16:24:04;;;;;;;30.45;12.45;;;;;;;;;;5001414;28;20046;-80
2022/08/27 16:26:50;;;;;;;32.92;12.77;;;;;;;;;;4993679;28;20501;-80
2022/08/27 16:29:36;;;;;;;19.52;7.05;;;;;;;;;;5000558;28;20502;-81
2022/08/27 16:32:21;;;;;;;20.17;8.23;;;;;;;;;;4996639;28;20039;-80
2022/08/27 16:35:07;;;;;;;28.92;10.45;;;;;;;;;;5002883;28;20054;-81
2022/08/27 16:37:52;;;;;;;32.08;10.73;;;;;;;;;;4982070;28;20058;-79
2022/08/27 16:40:42;;;;;;;27.52;12.23;;;;;;;;;;4996386;28;20050;-80
2022/08/27 16:43:28;;;;;;;44.63;16.80;;;;;;;;;;4997894;28;20482;-79
2022/08/27 16:46:14;;;;;;;89.40;40.22;;;;;;;;;;4998598;28;20050;-81
2022/08/27 16:52:05;;;;;;;116.97;53.10;;;;;;;;;;5002682;28;20046;-80
2022/08/27 16:54:51;;;;;;;94.85;42.67;;;;;;;;;;5000538;28;20050;-81